Time;durP1;ratioP1;P1;durP2;ratioP2;P2;SDS_P1;SDS_P2;PMS_P1;PMS_P2;Temp;Humidity;BMP_temperature;BMP_pressure;BME280_temperature;BME280_humidity;BME280_pressure;Samples;Min_cycle;Max_cycle;Signal;HPM_P1;HPM_P2
2023/06/18 00:02:04;;;;;;;20.10;15.82;;;;;;;14.43;100.00;64470.84;5053117;28;20154;-59
2023/06/18 00:04:31;;;;;;;18.95;16.45;;;;;;;14.45;100.00;64476.13;5035416;28;20217;-63
2023/06/18 00:06:56;;;;;;;19.58;16.23;;;;;;;14.42;100.00;64474.84;5052909;28;20217;-61
2023/06/18 00:09:22;;;;;;;19.08;15.68;;;;;;;14.35;100.00;64467.13;5052871;28;20213;-63
2023/06/18 00:11:49;;;;;;;21.95;17.48;;;;;;;14.37;100.00;64467.34;5052692;28;20201;-57
2023/06/18 00:14:15;;;;;;;21.17;16.00;;;;;;;14.40;100.00;64470.09;5052894;28;20336;-56
2023/06/18 00:16:40;;;;;;;25.33;17.58;;;;;;;14.39;100.00;64469.00;5052736;28;20556;-62
2023/06/18 00:19:06;;;;;;;25.25;17.48;;;;;;;14.37;100.00;64467.34;5053048;28;20690;-58
2023/06/18 00:21:31;;;;;;;21.73;18.30;;;;;;;14.41;100.00;64473.72;5035002;28;20193;-58
2023/06/18 00:23:57;;;;;;;21.02;17.45;;;;;;;14.36;100.00;64463.72;5053015;28;20637;-58
2023/06/18 00:26:25;;;;;;;24.42;17.90;;;;;;;14.43;100.00;64473.38;5052674;28;20208;-57
2023/06/18 00:28:51;;;;;;;21.33;18.13;;;;;;;14.39;100.00;64469.53;5052540;28;20278;-59
2023/06/18 00:31:17;;;;;;;22.45;18.65;;;;;;;14.39;100.00;64467.00;5052803;28;20191;-60
2023/06/18 00:33:43;;;;;;;23.15;19.20;;;;;;;14.37;100.00;64469.88;5052809;28;20217;-57
2023/06/18 00:36:09;;;;;;;22.10;18.60;;;;;;;14.43;100.00;64473.94;5052752;28;20209;-57
2023/06/18 00:38:35;;;;;;;23.85;19.25;;;;;;;14.38;100.00;64465.91;5052432;28;20209;-57
2023/06/18 00:41:01;;;;;;;25.10;19.20;;;;;;;14.40;100.00;64470.66;5052459;28;20208;-57
2023/06/18 00:43:29;;;;;;;25.23;19.30;;;;;;;14.43;100.00;64473.94;5052462;28;20300;-57
2023/06/18 00:45:59;;;;;;;22.77;19.52;;;;;;;14.38;100.00;64468.47;5052390;28;20222;-58
2023/06/18 00:48:25;;;;;;;23.92;19.98;;;;;;;14.40;100.00;64470.09;5052509;28;20216;-65
2023/06/18 00:50:54;;;;;;;21.63;19.05;;;;;;;14.35;100.00;64464.59;5052206;28;20258;-61
2023/06/18 00:53:20;;;;;;;23.98;19.75;;;;;;;14.36;100.00;64466.25;5052325;28;20228;-64
2023/06/18 00:55:47;;;;;;;22.93;19.87;;;;;;;14.37;100.00;64467.34;5034440;28;20258;-59
2023/06/18 00:58:13;;;;;;;25.52;19.90;;;;;;;14.47;100.00;64477.78;5034582;28;20209;-57
2023/06/18 01:00:40;;;;;;;25.40;20.80;;;;;;;14.44;100.00;64474.50;5052347;28;20224;-58
2023/06/18 01:03:18;;;;;;;22.95;20.42;;;;;;;14.45;100.00;64476.13;5051916;28;20355;-57
2023/06/18 01:05:47;;;;;;;24.58;20.35;;;;;;;14.34;100.00;64461.53;5052037;28;20204;-59
2023/06/18 01:08:14;;;;;;;25.00;20.93;;;;;;;14.41;100.00;64471.75;5052054;28;20221;-59
2023/06/18 01:10:40;;;;;;;23.60;20.50;;;;;;;14.35;100.00;64464.59;5051613;28;20211;-57
2023/06/18 01:13:13;;;;;;;27.52;21.30;;;;;;;14.35;100.00;64467.69;5051619;28;20271;-57
2023/06/18 01:15:38;;;;;;;25.30;20.80;;;;;;;14.34;100.00;64464.06;5051732;28;20189;-57
2023/06/18 01:18:07;;;;;;;25.73;20.45;;;;;;;14.35;100.00;64462.06;5051920;28;20609;-58
2023/06/18 01:20:40;;;;;;;25.15;21.40;;;;;;;14.37;100.00;64464.81;5051789;28;20291;-58
2023/06/18 01:23:17;;;;;;;30.58;21.98;;;;;;;14.36;100.00;64465.72;5051682;28;20182;-58
2023/06/18 01:25:44;;;;;;;26.88;22.45;;;;;;;14.38;100.00;64468.47;5051926;28;20300;-61
2023/06/18 01:28:10;;;;;;;27.85;23.05;;;;;;;14.39;100.00;64466.47;5051518;28;20224;-61
2023/06/18 01:30:36;;;;;;;26.67;22.35;;;;;;;14.35;100.00;64467.69;5050447;28;20205;-56
2023/06/18 01:33:03;;;;;;;25.75;21.63;;;;;;;14.48;100.00;64476.91;5051671;28;20216;-61
2023/06/18 01:35:29;;;;;;;27.08;21.70;;;;;;;14.43;100.00;64473.94;5050766;28;20232;-60
2023/06/18 01:38:16;;;;;;;25.60;21.73;;;;;;;14.43;100.00;64476.47;5050749;28;20606;-59
2023/06/18 01:40:52;;;;;;;30.48;22.73;;;;;;;14.42;100.00;64472.84;5050715;28;20224;-60
2023/06/18 01:43:30;;;;;;;27.05;23.10;;;;;;;14.45;100.00;64475.59;5050700;28;20209;-64
2023/06/18 01:46:13;;;;;;;26.73;22.70;;;;;;;14.47;100.00;64480.88;5051703;28;20228;-59
2023/06/18 01:48:49;;;;;;;24.65;21.17;;;;;;;14.58;100.00;64490.44;5033375;28;20220;-58
2023/06/18 01:51:22;;;;;;;25.33;21.27;;;;;;;14.60;100.00;64490.09;5051427;28;20262;-60
2023/06/18 01:53:51;;;;;;;26.23;21.53;;;;;;;14.52;100.00;64480.75;5051631;28;20236;-58
2023/06/18 01:56:17;;;;;;;26.35;21.95;;;;;;;14.47;100.00;64478.34;5051262;28;20189;-61
2023/06/18 01:58:43;;;;;;;28.75;22.10;;;;;;;14.46;100.00;64479.78;5051096;28;20271;-57
2023/06/18 02:01:12;;;;;;;28.02;23.05;;;;;;;14.52;100.00;64485.81;5033339;28;20193;-58
2023/06/18 02:03:39;;;;;;;23.20;20.10;;;;;;;14.64;100.00;64494.50;5051624;28;20295;-61
2023/06/18 02:06:05;;;;;;;25.45;22.08;;;;;;;14.63;100.00;64492.81;5051438;28;20292;-60
2023/06/18 02:08:32;;;;;;;28.42;23.40;;;;;;;14.58;100.00;64487.34;5051332;28;20670;-58
2023/06/18 02:10:57;;;;;;;27.60;21.73;;;;;;;14.61;100.00;64495.69;5051240;28;20358;-58
2023/06/18 02:13:23;;;;;;;26.80;22.67;;;;;;;14.69;100.00;64502.50;5051360;28;20217;-57
2023/06/18 02:15:48;;;;;;;26.38;22.13;;;;;;;14.54;100.00;64488.56;5033352;28;20613;-59
2023/06/18 02:18:13;;;;;;;26.85;22.58;;;;;;;14.60;100.00;64492.06;5057951;23;20247;-58
2023/06/18 02:20:40;;;;;;;27.60;21.63;;;;;;;14.59;100.00;64493.50;5030895;28;20271;-60
2023/06/18 02:23:05;;;;;;;26.02;22.50;;;;;;;14.57;100.00;64489.31;5030980;28;20597;-57
2023/06/18 02:25:32;;;;;;;25.35;21.17;;;;;;;14.62;100.00;64491.75;5031232;28;20221;-57
2023/06/18 02:28:05;;;;;;;26.65;22.20;;;;;;;14.58;100.00;64492.97;5030974;28;20229;-61
2023/06/18 02:30:31;;;;;;;26.10;22.23;;;;;;;14.56;100.00;64488.25;5030913;28;20255;-61
2023/06/18 02:33:02;;;;;;;28.80;23.17;;;;;;;14.61;100.00;64493.16;5031072;28;20303;-60
2023/06/18 02:35:35;;;;;;;29.85;22.92;;;;;;;14.60;100.00;64492.63;5031096;28;20696;-61
2023/06/18 02:38:00;;;;;;;39.05;23.00;;;;;;;14.62;100.00;64494.84;5031043;28;20202;-57
2023/06/18 02:40:26;;;;;;;28.33;22.30;;;;;;;14.70;100.00;64503.63;5054793;22;20610;-58
2023/06/18 02:42:52;;;;;;;26.83;22.27;;;;;;;14.61;100.00;64496.25;5070583;28;20250;-60
2023/06/18 02:45:22;;;;;;;26.15;21.52;;;;;;;14.58;100.00;64490.44;5070693;28;20704;-57
2023/06/18 02:47:49;;;;;;;28.63;23.45;;;;;;;14.66;100.00;64496.69;5070776;28;20286;-56
2023/06/18 02:50:15;;;;;;;25.85;21.95;;;;;;;14.58;100.00;64492.97;5070650;28;20205;-58
2023/06/18 02:52:42;;;;;;;26.58;21.05;;;;;;;14.63;100.00;64492.81;5052837;28;20585;-59
2023/06/18 02:55:09;;;;;;;31.85;23.33;;;;;;;14.61;100.00;64496.25;5074499;28;20223;-61
2023/06/18 02:57:35;;;;;;;27.25;23.05;;;;;;;14.67;100.00;64499.75;5074068;28;20196;-61
2023/06/18 03:00:04;;;;;;;28.50;22.88;;;;;;;14.57;100.00;64486.22;5074110;28;20212;-61
2023/06/18 03:02:31;;;;;;;31.35;23.90;;;;;;;14.65;100.00;64497.56;5074035;28;20188;-57
2023/06/18 03:04:56;;;;;;;26.77;22.55;;;;;;;14.52;100.00;64483.84;5074306;28;20217;-58
2023/06/18 03:07:22;;;;;;;29.08;24.48;;;;;;;14.66;100.00;64496.13;5039504;28;20299;-58
2023/06/18 03:09:47;;;;;;;28.83;23.60;;;;;;;14.56;100.00;64488.25;5073808;28;20208;-60
2023/06/18 03:12:12;;;;;;;26.25;22.25;;;;;;;14.70;100.00;64501.09;5073966;28;20192;-59
2023/06/18 03:14:38;;;;;;;31.80;22.25;;;;;;;14.59;100.00;64489.00;5074144;28;20209;-58
2023/06/18 03:17:04;;;;;;;30.52;23.70;;;;;;;14.67;100.00;64500.31;5073797;28;20189;-57
2023/06/18 03:19:29;;;;;;;26.38;21.52;;;;;;;14.66;100.00;64498.66;5073728;28;20235;-57
2023/06/18 03:21:55;;;;;;;26.35;23.08;;;;;;;14.60;100.00;64492.63;5073676;28;20578;-57
2023/06/18 03:24:20;;;;;;;26.77;22.10;;;;;;;14.69;100.00;64499.97;5073800;28;20212;-57
2023/06/18 03:26:46;;;;;;;29.30;22.02;;;;;;;14.76;100.00;64509.66;5055521;28;20743;-57
2023/06/18 03:29:11;;;;;;;24.85;22.13;;;;;;;14.75;100.00;64508.56;5073570;28;20267;-56
2023/06/18 03:31:39;;;;;;;25.80;21.92;;;;;;;14.75;100.00;64509.09;5073452;28;20245;-57
2023/06/18 03:34:07;;;;;;;27.65;22.38;;;;;;;14.71;100.00;64504.72;5055486;28;20217;-57
2023/06/18 03:36:41;;;;;;;25.48;22.08;;;;;;;14.65;100.00;64500.66;5073691;28;20201;-58
2023/06/18 03:39:11;;;;;;;26.75;22.40;;;;;;;14.84;100.00;64516.47;5073680;28;20251;-57
2023/06/18 03:41:36;;;;;;;24.63;21.15;;;;;;;14.87;100.00;64521.75;5073226;28;20662;-58
2023/06/18 03:44:02;;;;;;;24.02;21.30;;;;;;;14.68;100.00;64500.88;5073316;28;20235;-58
2023/06/18 03:46:28;;;;;;;31.02;22.80;;;;;;;14.82;100.00;64516.25;5073340;28;20201;-59
2023/06/18 03:48:55;;;;;;;26.67;21.75;;;;;;;14.77;100.00;64508.78;5073456;28;20216;-59
2023/06/18 03:51:20;;;;;;;25.15;20.52;;;;;;;14.84;100.00;64519.00;5073291;28;20287;-62
2023/06/18 03:53:45;;;;;;;23.98;20.60;;;;;;;14.83;100.00;64517.91;5073180;28;20215;-58
2023/06/18 03:56:11;;;;;;;28.55;23.48;;;;;;;14.78;100.00;64512.41;5073176;28;20224;-58
2023/06/18 03:58:36;;;;;;;26.58;22.08;;;;;;;14.86;100.00;64518.66;5072873;28;20232;-61
2023/06/18 04:01:02;;;;;;;24.00;20.88;;;;;;;14.93;100.00;64530.88;5073279;28;20200;-60
2023/06/18 04:03:27;;;;;;;27.50;21.60;;;;;;;14.90;100.00;64525.59;5072521;28;20204;-60
2023/06/18 04:05:53;;;;;;;26.92;22.83;;;;;;;14.86;100.00;64518.66;5073174;28;20207;-61
2023/06/18 04:08:19;;;;;;;25.85;21.33;;;;;;;14.90;100.00;64523.06;5072863;28;20286;-60
2023/06/18 04:10:45;;;;;;;26.80;22.48;;;;;;;14.99;100.00;64532.41;5073328;28;20283;-61
2023/06/18 04:13:18;;;;;;;26.02;22.20;;;;;;;15.04;100.00;64538.47;5072782;28;20280;-60
2023/06/18 04:15:44;;;;;;;24.90;21.85;;;;;;;15.07;100.00;64544.28;5072866;28;20222;-61
2023/06/18 04:18:09;;;;;;;29.52;21.02;;;;;;;15.08;100.00;64545.41;5072846;28;20205;-61
2023/06/18 04:20:35;;;;;;;31.50;21.85;;;;;;;15.11;100.00;64548.69;5072872;28;20270;-61
2023/06/18 04:23:02;;;;;;;30.25;23.00;;;;;;;15.04;100.00;64540.44;5072737;28;20207;-57
2023/06/18 04:25:27;;;;;;;27.55;22.73;;;;;;;15.04;100.00;64541.00;5073160;28;20215;-57
2023/06/18 04:27:53;;;;;;;26.23;21.92;;;;;;;15.13;100.00;64547.78;5072403;28;20197;-58
2023/06/18 04:30:18;;;;;;;28.45;22.25;;;;;;;15.11;100.00;64546.16;5073074;28;20216;-58
2023/06/18 04:32:45;;;;;;;26.40;22.52;;;;;;;15.11;100.00;64548.13;5072577;28;20675;-57
2023/06/18 04:35:10;;;;;;;26.55;21.98;;;;;;;15.17;100.00;64552.19;5072666;28;20217;-57
2023/06/18 04:37:36;;;;;;;25.20;21.58;;;;;;;15.18;100.00;64552.75;5072635;28;20258;-58
2023/06/18 04:40:04;;;;;;;24.98;21.83;;;;;;;15.26;100.00;64564.63;5072393;28;20224;-57
2023/06/18 04:42:29;;;;;;;25.50;21.67;;;;;;;15.30;100.00;64568.47;5072427;28;20243;-58
2023/06/18 04:44:55;;;;;;;26.70;22.95;;;;;;;15.35;100.00;64571.44;5072575;28;20710;-58
2023/06/18 04:47:21;;;;;;;25.58;21.67;;;;;;;15.25;100.00;64560.44;5072286;28;20207;-58
2023/06/18 04:49:46;;;;;;;27.10;21.02;;;;;;;15.33;100.00;64572.31;5072577;28;20662;-59
2023/06/18 04:52:12;;;;;;;25.92;21.80;;;;;;;15.28;100.00;64566.28;5072326;28;20249;-59
2023/06/18 04:54:40;;;;;;;28.00;21.77;;;;;;;15.25;100.00;64565.53;5072298;28;20208;-58
2023/06/18 04:57:05;;;;;;;29.48;23.25;;;;;;;15.26;100.00;64564.06;5072035;28;20185;-58
2023/06/18 04:59:31;;;;;;;28.42;21.80;;;;;;;15.27;100.00;64565.72;5072363;28;20673;-58
2023/06/18 05:01:56;;;;;;;26.05;22.35;;;;;;;15.29;100.00;64567.38;5072354;28;20250;-59
2023/06/18 05:04:22;;;;;;;28.67;21.98;;;;;;;15.37;100.00;64576.19;5072142;28;20261;-57
2023/06/18 05:06:48;;;;;;;30.33;22.95;;;;;;;15.36;100.00;64575.06;5072180;28;20284;-58
2023/06/18 05:09:13;;;;;;;28.52;22.45;;;;;;;15.34;100.00;64572.88;5072068;28;20658;-58
2023/06/18 05:11:39;;;;;;;26.88;21.95;;;;;;;15.26;100.00;64564.63;5071836;28;20216;-57
2023/06/18 05:14:05;;;;;;;27.33;22.00;;;;;;;15.36;100.00;64575.63;5071923;28;20212;-58
2023/06/18 05:16:32;;;;;;;27.95;22.98;;;;;;;15.38;100.00;64577.28;5071006;28;20697;-58
2023/06/18 05:18:57;;;;;;;29.17;21.23;;;;;;;15.35;100.00;64573.97;5071771;28;20266;-61
2023/06/18 05:21:23;;;;;;;28.63;21.88;;;;;;;15.37;100.00;64576.19;5071815;28;20197;-61
2023/06/18 05:23:48;;;;;;;30.02;21.85;;;;;;;15.31;100.00;64567.03;5053902;28;20561;-62
2023/06/18 05:26:13;;;;;;;27.40;22.52;;;;;;;15.50;100.00;64593.59;5071690;28;20197;-61
2023/06/18 05:28:39;;;;;;;28.25;22.58;;;;;;;15.40;100.00;64579.47;5071435;28;20208;-58
2023/06/18 05:31:04;;;;;;;25.40;22.42;;;;;;;15.47;100.00;64587.19;5071865;28;20216;-59
2023/06/18 05:33:30;;;;;;;28.52;21.15;;;;;;;15.50;100.00;64587.94;5071512;28;20693;-58
2023/06/18 05:35:55;;;;;;;28.83;23.63;;;;;;;15.43;100.00;64580.25;5071869;28;20204;-58
2023/06/18 05:38:20;;;;;;;24.65;21.98;;;;;;;15.42;100.00;64579.72;5053837;28;20620;-60
2023/06/18 05:40:46;;;;;;;28.13;22.90;;;;;;;15.45;100.00;64585.56;5071712;28;20592;-61
2023/06/18 05:43:12;;;;;;;26.80;21.83;;;;;;;15.39;100.00;64575.84;5071414;28;20713;-60
2023/06/18 05:45:38;;;;;;;31.33;21.75;;;;;;;15.35;100.00;64573.97;5053505;28;20200;-60
2023/06/18 05:48:04;;;;;;;30.60;23.42;;;;;;;15.36;100.00;64572.53;5071326;28;20193;-62
2023/06/18 05:50:30;;;;;;;27.88;22.52;;;;;;;15.41;100.00;64580.56;5071494;28;20323;-58
2023/06/18 05:52:55;;;;;;;26.83;21.67;;;;;;;15.53;100.00;64593.81;5071036;28;20221;-61
2023/06/18 05:55:21;;;;;;;27.08;21.80;;;;;;;15.51;100.00;64589.06;5071816;28;20285;-59
2023/06/18 05:57:47;;;;;;;24.10;19.88;;;;;;;15.53;100.00;64591.81;5071159;28;20196;-59
2023/06/18 06:00:13;;;;;;;24.77;20.67;;;;;;;15.60;100.00;64596.41;5071350;28;20745;-57
2023/06/18 06:02:38;;;;;;;29.45;23.65;;;;;;;15.65;100.00;64607.00;5071174;28;20209;-56
2023/06/18 06:05:04;;;;;;;28.98;21.38;;;;;;;15.68;100.00;64610.28;5071418;28;20244;-58
2023/06/18 06:07:30;;;;;;;25.48;22.17;;;;;;;15.69;100.00;64611.41;5053141;28;20634;-61
2023/06/18 06:09:55;;;;;;;24.33;21.08;;;;;;;15.73;100.00;64613.81;5070874;28;20634;-57
2023/06/18 06:12:21;;;;;;;24.58;21.20;;;;;;;15.69;100.00;64611.94;5071108;28;20212;-59
2023/06/18 06:14:47;;;;;;;24.90;21.27;;;;;;;15.74;100.00;64616.88;5071108;28;20299;-58
2023/06/18 06:17:12;;;;;;;22.55;20.13;;;;;;;15.77;100.00;64618.22;5070879;28;20283;-58
2023/06/18 06:19:38;;;;;;;23.55;19.27;;;;;;;15.76;100.00;64617.09;5071063;28;20225;-58
2023/06/18 06:22:03;;;;;;;24.25;20.17;;;;;;;15.78;100.00;64621.84;5070846;28;20666;-58
2023/06/18 06:24:29;;;;;;;22.83;19.83;;;;;;;15.85;100.00;64629.56;5070716;28;20209;-61
2023/06/18 06:26:55;;;;;;;23.83;19.23;;;;;;;15.89;100.00;64633.41;5070483;28;20215;-61
2023/06/18 06:29:20;;;;;;;28.52;19.70;;;;;;;15.90;100.00;64634.50;5070672;28;20208;-62
2023/06/18 06:31:45;;;;;;;24.70;18.83;;;;;;;15.83;100.00;64624.25;5070756;28;20179;-57
2023/06/18 06:34:11;;;;;;;22.63;19.45;;;;;;;15.92;100.00;64634.16;5070741;28;20205;-59
2023/06/18 06:36:38;;;;;;;24.00;19.40;;;;;;;16.32;100.00;64680.72;5070560;28;20674;-57
2023/06/18 06:39:04;;;;;;;20.35;18.23;;;;;;;16.30;100.00;64675.97;5070315;28;20608;-62
2023/06/18 06:41:29;;;;;;;21.83;17.65;;;;;;;16.07;100.00;64650.66;5070703;28;20559;-61
2023/06/18 06:43:55;;;;;;;23.77;19.40;;;;;;;16.08;100.00;64653.75;5070347;28;20362;-62
2023/06/18 06:46:20;;;;;;;23.45;19.80;;;;;;;16.09;100.00;64654.84;5070420;28;20200;-60
2023/06/18 06:48:46;;;;;;;22.45;19.27;;;;;;;16.10;100.00;64656.50;5070380;28;20339;-59
2023/06/18 06:51:11;;;;;;;21.98;18.83;;;;;;;16.13;100.00;64656.72;5070750;28;20192;-61
2023/06/18 06:53:37;;;;;;;22.58;19.10;;;;;;;16.17;100.00;64663.66;5070513;28;20557;-62
2023/06/18 06:56:02;;;;;;;19.92;17.42;;;;;;;16.19;100.00;64663.88;5070347;28;20207;-61
2023/06/18 06:58:28;;;;;;;19.65;17.45;;;;;;;16.21;100.00;64665.53;5052429;28;20266;-62
2023/06/18 07:00:53;;;;;;;22.58;17.67;;;;;;;16.27;100.00;64672.69;5070683;28;20205;-60
2023/06/18 07:03:19;;;;;;;22.30;17.98;;;;;;;16.38;100.00;64684.25;5070111;28;20312;-61
2023/06/18 07:05:45;;;;;;;19.58;17.05;;;;;;;16.34;100.00;64682.91;5070691;28;20262;-60
2023/06/18 07:08:10;;;;;;;25.40;17.30;;;;;;;16.40;100.00;64686.97;5070404;28;20197;-60
2023/06/18 07:10:36;;;;;;;21.67;17.85;;;;;;;16.31;100.00;64677.09;5070579;28;20606;-60
2023/06/18 07:13:02;;;;;;;24.27;18.77;;;;;;;16.30;100.00;64673.44;5070619;28;20204;-61
2023/06/18 07:15:27;;;;;;;20.15;17.98;;;;;;;16.34;100.00;64679.84;5070267;28;20204;-57
2023/06/18 07:17:53;;;;;;;20.65;17.38;;;;;;;16.35;100.00;64686.56;5070311;28;20581;-58
2023/06/18 07:20:18;;;;;;;19.48;17.27;;;;;;;16.28;100.00;64673.78;5070019;28;20709;-59
2023/06/18 07:22:44;;;;;;;21.65;17.90;;;;;;;16.31;100.00;64677.09;5070072;28;20679;-56
2023/06/18 07:25:09;;;;;;;20.25;16.67;;;;;;;16.28;100.00;64673.22;5070390;28;20212;-57
2023/06/18 07:27:35;;;;;;;20.27;17.30;;;;;;;16.23;100.00;64673.38;5070135;28;20706;-58
2023/06/18 07:30:01;;;;;;;21.90;17.60;;;;;;;16.29;100.00;64674.88;5070162;28;20239;-57
2023/06/18 07:32:26;;;;;;;21.92;17.23;;;;;;;16.31;100.00;64679.63;5069954;28;20278;-57
2023/06/18 07:34:52;;;;;;;21.20;17.02;;;;;;;16.43;100.00;64687.75;5070033;28;20599;-56
2023/06/18 07:37:17;;;;;;;20.45;17.10;;;;;;;16.42;100.00;64689.19;5069982;28;20193;-56
2023/06/18 07:39:43;;;;;;;22.92;17.67;;;;;;;16.46;100.00;64696.13;5071409;28;20221;-58
2023/06/18 07:42:08;;;;;;;27.45;20.20;;;;;;;16.45;100.00;64691.94;5073397;28;20204;-58
2023/06/18 07:44:34;;;;;;;24.85;19.17;;;;;;;16.56;100.00;64702.06;5073378;28;20591;-58
2023/06/18 07:47:00;;;;;;;26.88;18.52;;;;;;;16.61;100.00;64710.13;5055139;28;20196;-56
2023/06/18 07:49:25;;;;;;;21.80;18.00;;;;;;;16.65;100.00;64717.06;5073425;28;20212;-57
2023/06/18 07:51:50;;;;;;;21.65;17.50;;;;;;;16.73;100.00;64725.88;5073300;28;20640;-57
2023/06/18 07:54:16;;;;;;;24.35;18.45;;;;;;;16.77;100.00;64727.75;5073255;28;20293;-59
2023/06/18 07:56:41;;;;;;;26.27;18.20;;;;;;;16.83;100.00;64730.72;5073155;28;20723;-61
2023/06/18 07:59:07;;;;;;;25.00;16.60;;;;;;;16.75;100.00;64725.00;5071892;28;20292;-57
2023/06/18 08:01:33;;;;;;;20.98;16.90;;;;;;;16.70;100.00;64722.56;5072935;28;20200;-57
2023/06/18 08:03:59;;;;;;;20.73;16.10;;;;;;;16.74;100.00;64727.00;5055367;28;20635;-59
2023/06/18 08:06:25;;;;;;;19.35;16.17;;;;;;;16.79;100.00;64729.41;5073258;28;20203;-60
2023/06/18 08:08:50;;;;;;;21.33;15.13;;;;;;;16.94;100.00;64745.91;5054988;28;20690;-60
2023/06/18 08:11:17;;;;;;;17.45;15.57;;;;;;;16.93;100.00;64744.81;5072851;28;20215;-57
2023/06/18 08:13:43;;;;;;;18.35;15.57;;;;;;;17.00;100.00;64749.44;5054589;28;20216;-57
2023/06/18 08:16:09;;;;;;;18.05;15.30;;;;;;;16.99;100.00;64753.97;5072849;28;20200;-57
2023/06/18 08:18:34;;;;;;;16.30;14.60;;;;;;;17.00;100.00;64755.06;5072596;28;20694;-58
2023/06/18 08:21:01;;;;;;;18.27;14.30;;;;;;;16.99;100.00;64751.41;5072727;28;20582;-61
2023/06/18 08:23:27;;;;;;;22.02;14.50;;;;;;;16.90;100.00;64740.97;5072418;28;20240;-59
2023/06/18 08:25:52;;;;;;;16.00;14.18;;;;;;;16.95;100.00;64749.56;5072632;28;20683;-59
2023/06/18 08:28:18;;;;;;;16.00;12.98;;;;;;;16.91;100.00;64742.59;5072280;28;20199;-60
2023/06/18 08:30:43;;;;;;;18.50;13.50;;;;;;;17.01;100.00;64753.63;5072870;28;20266;-57
2023/06/18 08:33:09;;;;;;;16.02;13.68;;;;;;;17.09;100.00;64764.44;5072271;28;20205;-60
2023/06/18 08:35:37;;;;;;;16.17;12.65;;;;;;;17.00;100.00;64747.44;5072844;28;20272;-57
2023/06/18 08:38:03;;;;;;;15.60;13.90;;;;;;;17.18;100.00;64769.25;5072430;28;20207;-57
2023/06/18 08:40:35;;;;;;;18.92;14.88;;;;;;;17.15;100.00;64768.50;5072569;28;20216;-57
2023/06/18 08:43:01;;;;;;;17.75;14.05;;;;;;;17.20;100.00;64777.09;5072273;28;20259;-57
2023/06/18 08:45:27;;;;;;;15.38;12.52;;;;;;;17.26;100.00;64780.63;5072276;28;20196;-57
2023/06/18 08:47:58;;;;;;;15.93;13.48;;;;;;;17.23;100.00;64777.31;5071987;28;20204;-58
2023/06/18 08:50:25;;;;;;;14.70;12.73;;;;;;;17.29;100.00;64786.47;5071986;28;20275;-57
2023/06/18 08:52:58;;;;;;;16.05;13.55;;;;;;;17.32;100.00;64787.22;5072097;28;20200;-58
2023/06/18 08:55:24;;;;;;;14.75;13.15;;;;;;;17.36;100.00;64791.63;5054351;28;20203;-57
2023/06/18 08:58:04;;;;;;;16.15;12.70;;;;;;;17.45;100.00;64804.09;5071879;28;20283;-57
2023/06/18 09:00:30;;;;;;;16.58;12.80;;;;;;;17.32;100.00;64784.69;5072234;28;20694;-57
2023/06/18 09:02:56;;;;;;;14.38;12.80;;;;;;;17.25;100.00;64782.59;5071850;28;20623;-58
2023/06/18 09:05:22;;;;;;;13.32;12.00;;;;;;;17.32;100.00;64787.22;5072034;28;20205;-58
2023/06/18 09:07:48;;;;;;;16.95;11.80;;;;;;;17.29;100.00;64783.94;5071892;28;20195;-57
2023/06/18 09:10:14;;;;;;;18.17;12.70;;;;;;;17.25;100.00;64780.06;5071866;28;20217;-57
2023/06/18 09:12:40;;;;;;;13.13;11.60;;;;;;;17.29;100.00;64786.47;5071829;28;20204;-56
2023/06/18 09:15:06;;;;;;;14.20;11.93;;;;;;;17.28;100.00;64783.38;5070697;28;20592;-57
2023/06/18 09:17:32;;;;;;;13.32;11.00;;;;;;;17.28;100.00;64782.81;5071716;28;20192;-57
2023/06/18 09:19:58;;;;;;;15.35;11.07;;;;;;;17.24;100.00;64775.88;5071847;28;20225;-57
2023/06/18 09:22:24;;;;;;;13.52;11.65;;;;;;;17.29;100.00;64787.00;5071657;28;20230;-56
2023/06/18 09:24:58;;;;;;;14.32;12.38;;;;;;;17.25;100.00;64779.53;5071762;28;20213;-57
2023/06/18 09:27:32;;;;;;;18.33;12.05;;;;;;;17.33;100.00;64791.41;5053531;28;20195;-57
2023/06/18 09:29:57;;;;;;;16.23;13.02;;;;;;;17.39;100.00;64792.94;5063013;22;20221;-58
2023/06/18 09:32:23;;;;;;;15.32;12.27;;;;;;;17.48;100.00;64805.41;5051408;28;20640;-58
2023/06/18 09:34:48;;;;;;;12.80;11.55;;;;;;;17.49;100.00;64806.00;5051367;28;20215;-62
2023/06/18 09:37:16;;;;;;;16.23;12.27;;;;;;;17.50;100.00;64807.63;5051488;28;20660;-62
2023/06/18 09:39:42;;;;;;;14.98;12.07;;;;;;;17.56;100.00;64816.25;5050924;28;20209;-61
2023/06/18 09:42:13;;;;;;;15.20;13.02;;;;;;;17.64;100.00;64822.50;5051509;28;20189;-61
2023/06/18 09:44:39;;;;;;;13.77;11.50;;;;;;;17.63;100.00;64820.84;5051631;28;20209;-58
2023/06/18 09:47:12;;;;;;;12.75;11.18;;;;;;;17.67;100.00;64825.28;5051336;28;20201;-56
2023/06/18 09:49:38;;;;;;;12.35;11.05;;;;;;;17.80;100.00;64842.13;5051313;28;20221;-58
2023/06/18 09:52:05;;;;;;;13.48;11.30;;;;;;;17.63;100.00;64820.84;5051086;28;20294;-56
2023/06/18 09:54:41;;;;;;;10.50;9.40;;;;;;;17.67;100.00;64825.81;5050999;28;20209;-57
2023/06/18 09:57:08;;;;;;;11.98;10.68;;;;;;;17.64;100.00;64822.50;5050896;28;20206;-57
2023/06/18 09:59:35;;;;;;;13.55;11.75;;;;;;;17.70;100.00;64828.56;5050850;28;20220;-56
2023/06/18 10:02:01;;;;;;;14.80;12.20;;;;;;;17.68;100.00;64824.38;5050359;28;20189;-58
2023/06/18 10:04:27;;;;;;;13.40;10.98;;;;;;;17.80;100.00;64842.13;5051248;28;20298;-57
2023/06/18 10:07:05;;;;;;;10.98;9.88;;;;;;;17.85;100.00;64845.66;5050840;28;20227;-57
2023/06/18 10:09:39;;;;;;;13.70;10.52;;;;;;;17.90;100.00;64851.16;5050674;28;20231;-57
2023/06/18 10:12:05;;;;;;;11.95;9.95;;;;;;;17.94;100.00;64855.03;5050912;28;20277;-59
2023/06/18 10:14:32;;;;;;;10.98;9.80;;;;;;;17.95;100.00;64856.69;5050920;28;20217;-59
2023/06/18 10:17:05;;;;;;;9.88;8.93;;;;;;;18.06;100.00;64868.28;5050812;28;20197;-59
2023/06/18 10:20:00;;;;;;;11.07;9.23;;;;;;;18.05;100.00;64869.72;5050552;28;20221;-58
2023/06/18 10:22:29;;;;;;;11.82;10.10;;;;;;;18.07;100.00;64869.91;5048835;28;20224;-58
2023/06/18 10:25:05;;;;;;;13.65;10.40;;;;;;;18.23;100.00;64887.56;5033028;28;20205;-60
2023/06/18 10:27:31;;;;;;;12.65;10.27;;;;;;;18.30;100.00;64895.28;5050538;28;20204;-59
2023/06/18 10:29:58;;;;;;;13.13;9.98;;;;;;;18.33;100.00;64898.59;5050870;28;20241;-57
2023/06/18 10:32:24;;;;;;;12.18;9.95;;;;;;;18.33;100.00;64895.47;5050617;28;20209;-60
2023/06/18 10:34:51;;;;;;;11.68;9.35;;;;;;;18.35;100.00;64903.34;5050676;28;20215;-62
2023/06/18 10:37:17;;;;;;;9.65;8.65;;;;;;;18.45;100.00;64908.72;5050616;28;20221;-60
2023/06/18 10:39:44;;;;;;;11.40;8.77;;;;;;;18.39;100.00;64905.22;5050394;28;20228;-61
2023/06/18 10:42:15;;;;;;;10.40;8.52;;;;;;;18.49;100.00;64915.69;5050464;28;20710;-60
2023/06/18 10:44:55;;;;;;;11.05;8.43;;;;;;;18.49;100.00;64915.16;5050215;28;20263;-60
2023/06/18 10:47:22;;;;;;;10.32;8.45;;;;;;;18.47;100.00;64915.50;5050276;28;20192;-61
2023/06/18 10:50:03;;;;;;;10.35;8.73;;;;;;;18.48;100.00;64912.06;5050777;28;20723;-58
2023/06/18 10:52:30;;;;;;;11.77;8.77;;;;;;;18.46;100.00;64911.84;5050553;28;20679;-61
2023/06/18 10:55:06;;;;;;;12.43;9.02;;;;;;;18.50;100.00;64916.25;5050530;28;20220;-62
2023/06/18 10:57:34;;;;;;;13.10;8.75;;;;;;;18.62;100.00;64930.03;5032343;28;20197;-61
2023/06/18 11:00:13;;;;;;;11.95;8.60;;;;;;;18.77;100.00;64944.03;5032283;28;20370;-62
2023/06/18 11:02:39;;;;;;;9.77;8.82;;;;;;;18.80;100.00;64949.34;5050144;28;20355;-60
2023/06/18 11:05:05;;;;;;;9.82;8.57;;;;;;;18.86;100.00;64955.97;5050112;28;20213;-59
2023/06/18 11:07:31;;;;;;;11.02;8.48;;;;;;;18.93;100.00;64964.25;5049988;28;20708;-59
2023/06/18 11:09:58;;;;;;;9.38;8.48;;;;;;;19.10;100.00;64982.44;5050500;28;20312;-59